createdAt,value
2023-04-25T00:01:25.281Z,1.35
2023-04-25T00:03:52.314Z,0.90
2023-04-25T00:06:19.559Z,1.05
2023-04-25T00:08:46.347Z,1.20
2023-04-25T00:11:13.040Z,1.02
2023-04-25T00:13:42.669Z,0.98
2023-04-25T00:16:09.625Z,1.33
2023-04-25T00:18:37.392Z,1.45
2023-04-25T00:21:07.094Z,1.30
2023-04-25T00:23:33.854Z,1.23
2023-04-25T00:26:00.495Z,1.27
2023-04-25T00:28:27.173Z,1.30
2023-04-25T00:30:54.086Z,1.45
2023-04-25T00:33:20.794Z,1.50
2023-04-25T00:35:47.557Z,1.10
2023-04-25T00:38:14.425Z,1.50
2023-04-25T00:40:41.148Z,1.77
2023-04-25T00:43:07.846Z,1.48
2023-04-25T00:45:39.094Z,1.60
2023-04-25T00:48:05.945Z,1.50
2023-04-25T00:50:34.864Z,1.55
2023-04-25T00:53:01.641Z,1.63
2023-04-25T00:55:28.480Z,1.80
2023-04-25T00:57:55.367Z,1.67
2023-04-25T01:00:22.552Z,1.60
2023-04-25T01:02:49.441Z,1.80
2023-04-25T01:05:16.433Z,1.73
2023-04-25T01:07:43.291Z,1.77
2023-04-25T01:10:10.369Z,1.83
2023-04-25T01:12:37.153Z,2.03
2023-04-25T01:15:04.461Z,1.92
2023-04-25T01:17:32.433Z,1.67
2023-04-25T01:19:59.365Z,2.05
2023-04-25T01:22:26.828Z,1.90
2023-04-25T01:24:53.634Z,1.88
2023-04-25T01:27:21.787Z,2.28
2023-04-25T01:29:48.830Z,1.97
2023-04-25T01:32:16.029Z,2.30
2023-04-25T01:34:42.853Z,2.50
2023-04-25T01:37:09.646Z,2.28
2023-04-25T01:39:36.381Z,1.83
2023-04-25T01:42:03.288Z,2.13
2023-04-25T01:44:30.054Z,2.08
2023-04-25T01:46:56.818Z,2.40
2023-04-25T01:49:24.634Z,1.95
2023-04-25T01:51:51.444Z,2.20
2023-04-25T01:54:18.210Z,1.97
2023-04-25T01:56:45.194Z,2.10
2023-04-25T01:59:12.208Z,2.10
2023-04-25T02:01:38.998Z,2.20
2023-04-25T02:04:05.969Z,1.95
2023-04-25T02:06:33.203Z,2.27
2023-04-25T02:09:00.000Z,2.08
2023-04-25T02:11:26.748Z,2.40
2023-04-25T02:13:53.446Z,2.30
2023-04-25T02:16:20.376Z,2.33
2023-04-25T02:18:47.977Z,2.00
2023-04-25T02:21:14.746Z,2.20
2023-04-25T02:23:41.588Z,2.20
2023-04-25T02:26:08.278Z,1.90
2023-04-25T02:28:35.017Z,1.90
2023-04-25T02:31:01.822Z,2.17
2023-04-25T02:33:28.596Z,1.65
2023-04-25T02:35:55.371Z,1.70
2023-04-25T02:38:22.048Z,1.30
2023-04-25T02:40:48.746Z,1.30
2023-04-25T02:43:15.470Z,1.60
2023-04-25T02:45:42.205Z,1.13
2023-04-25T02:48:08.989Z,1.20
2023-04-25T02:50:35.849Z,1.20
2023-04-25T02:53:02.554Z,1.40
2023-04-25T02:55:29.251Z,1.50
2023-04-25T02:57:58.741Z,1.55
2023-04-25T03:00:25.537Z,2.10
2023-04-25T03:02:52.385Z,2.15
2023-04-25T03:05:19.246Z,2.17
2023-04-25T03:07:46.716Z,2.10
2023-04-25T03:10:13.437Z,2.15
2023-04-25T03:12:40.300Z,2.47
2023-04-25T03:15:07.420Z,2.10
2023-04-25T03:17:34.359Z,2.40
2023-04-25T03:20:01.529Z,2.37
2023-04-25T03:22:28.313Z,2.10
2023-04-25T03:24:55.105Z,2.13
2023-04-25T03:27:21.866Z,2.20
2023-04-25T03:29:48.661Z,2.30
2023-04-25T03:32:15.388Z,1.90
2023-04-25T03:34:42.304Z,2.10
2023-04-25T03:37:09.029Z,1.90
2023-04-25T03:39:36.144Z,2.10
2023-04-25T03:42:03.980Z,2.50
2023-04-25T03:44:30.822Z,2.07
2023-04-25T03:46:57.804Z,2.10
2023-04-25T03:49:25.337Z,2.40
2023-04-25T03:51:52.064Z,2.00
2023-04-25T03:54:18.818Z,2.50
2023-04-25T03:56:45.524Z,2.47
2023-04-25T03:59:15.238Z,2.15
2023-04-25T04:01:41.982Z,2.55
2023-04-25T04:04:09.189Z,2.28
2023-04-25T04:06:37.451Z,2.63
2023-04-25T04:09:04.424Z,2.40
2023-04-25T04:11:32.371Z,2.42
2023-04-25T04:13:59.222Z,2.75
2023-04-25T04:16:26.087Z,2.80
2023-04-25T04:18:52.843Z,2.33
2023-04-25T04:21:19.565Z,2.70
2023-04-25T04:23:47.568Z,2.47
2023-04-25T04:26:16.309Z,2.20
2023-04-25T04:28:44.988Z,2.60
2023-04-25T04:31:12.636Z,2.70
2023-04-25T04:33:39.439Z,2.27
2023-04-25T04:36:08.587Z,2.22
2023-04-25T04:38:35.646Z,2.35
2023-04-25T04:41:02.474Z,2.63
2023-04-25T04:43:29.585Z,2.50
2023-04-25T04:45:59.660Z,2.53
2023-04-25T04:48:26.382Z,2.47
2023-04-25T04:50:53.213Z,2.65
2023-04-25T04:53:20.042Z,2.83
2023-04-25T04:55:47.201Z,2.78
2023-04-25T04:58:14.013Z,2.10
2023-04-25T05:00:41.291Z,2.55
2023-04-25T05:03:08.227Z,2.63
2023-04-25T05:05:35.597Z,3.03
2023-04-25T05:08:04.464Z,2.20
2023-04-25T05:10:31.174Z,2.70
2023-04-25T05:12:57.887Z,2.33
2023-04-25T05:15:24.655Z,2.88
2023-04-25T05:17:51.639Z,2.83
2023-04-25T05:20:20.005Z,2.42
2023-04-25T05:22:46.861Z,2.23
2023-04-25T05:25:13.611Z,2.40
2023-04-25T05:27:40.309Z,2.63
2023-04-25T05:30:08.031Z,2.80
2023-04-25T05:32:34.832Z,3.00
2023-04-25T05:35:01.639Z,2.47
2023-04-25T05:37:28.352Z,2.63
2023-04-25T05:39:55.329Z,2.30
2023-04-25T05:42:22.270Z,2.60
2023-04-25T05:44:49.087Z,2.58
2023-04-25T05:47:16.245Z,2.13
2023-04-25T05:49:42.970Z,2.25
2023-04-25T05:52:09.656Z,2.25
2023-04-25T05:54:36.462Z,2.42
2023-04-25T05:57:03.720Z,2.28
2023-04-25T05:59:30.509Z,2.23
2023-04-25T06:01:57.220Z,2.78
2023-04-25T06:04:24.236Z,3.05
2023-04-25T06:06:51.638Z,3.00
2023-04-25T06:09:18.460Z,3.40
2023-04-25T06:11:45.799Z,3.37
2023-04-25T06:14:12.501Z,3.22
2023-04-25T06:16:39.257Z,3.80
2023-04-25T06:19:06.214Z,3.55
2023-04-25T06:21:33.434Z,4.00
2023-04-25T06:24:00.444Z,3.80
2023-04-25T06:26:27.168Z,4.85
2023-04-25T06:28:53.922Z,5.68
2023-04-25T06:31:20.826Z,5.07
2023-04-25T06:33:49.498Z,5.30
2023-04-25T06:36:16.491Z,4.30
2023-04-25T06:38:43.430Z,4.50
2023-04-25T06:41:10.663Z,4.53
2023-04-25T06:43:37.425Z,4.10
2023-04-25T06:46:04.377Z,3.90
2023-04-25T06:48:31.151Z,3.47
2023-04-25T06:50:57.919Z,3.47
2023-04-25T06:53:24.642Z,3.60
2023-04-25T06:55:51.386Z,3.60
2023-04-25T06:58:18.821Z,3.33
2023-04-25T07:00:45.714Z,3.57
2023-04-25T07:03:14.546Z,3.80
2023-04-25T07:05:41.633Z,3.67
2023-04-25T07:08:08.382Z,3.55
2023-04-25T07:10:36.136Z,3.58
2023-04-25T07:13:02.928Z,3.00
2023-04-25T07:15:29.711Z,3.28
2023-04-25T07:17:56.521Z,3.20
2023-04-25T07:20:23.314Z,3.40
2023-04-25T07:22:51.169Z,3.10
2023-04-25T07:25:18.307Z,3.40
2023-04-25T07:27:45.470Z,3.45
2023-04-25T07:30:13.294Z,3.28
2023-04-25T07:32:40.704Z,3.22
2023-04-25T07:35:08.829Z,2.75
2023-04-25T07:37:36.472Z,3.23
2023-04-25T07:40:05.006Z,3.33
2023-04-25T07:42:32.333Z,3.20
2023-04-25T07:44:59.085Z,3.42
2023-04-25T07:47:26.550Z,3.22
2023-04-25T07:49:55.487Z,2.97
2023-04-25T07:52:22.561Z,3.15
2023-04-25T07:54:49.704Z,3.70
2023-04-25T07:57:18.052Z,2.80
2023-04-25T07:59:44.957Z,2.90
2023-04-25T08:02:11.763Z,2.80
2023-04-25T08:04:38.725Z,2.60
2023-04-25T08:07:05.588Z,2.70
2023-04-25T08:09:35.648Z,2.50
2023-04-25T08:12:03.138Z,3.03
2023-04-25T08:14:36.787Z,2.37
2023-04-25T08:17:04.770Z,2.58
2023-04-25T08:19:31.874Z,2.70
2023-04-25T08:21:59.000Z,2.08
2023-04-25T08:24:27.220Z,2.55
2023-04-25T08:26:54.979Z,2.37
2023-04-25T08:29:22.273Z,2.20
2023-04-25T08:31:49.357Z,2.30
2023-04-25T08:34:16.302Z,2.03
2023-04-25T08:36:43.139Z,2.13
2023-04-25T08:39:09.898Z,2.27
2023-04-25T08:41:38.177Z,2.10
2023-04-25T08:44:06.544Z,2.20
2023-04-25T08:46:33.751Z,2.63
2023-04-25T08:49:03.205Z,2.53
2023-04-25T08:51:33.188Z,2.20
2023-04-25T08:56:48.913Z,2.97
2023-04-25T08:59:15.931Z,2.45
2023-04-25T09:01:44.709Z,2.92
2023-04-25T09:04:13.748Z,2.97
2023-04-25T09:06:41.015Z,3.00
2023-04-25T09:09:09.638Z,2.50
2023-04-25T09:11:37.565Z,2.25
2023-04-25T09:14:26.107Z,2.63
2023-04-25T09:17:00.554Z,2.57
2023-04-25T09:19:46.862Z,2.47
2023-04-25T09:22:14.079Z,2.20
2023-04-25T09:24:47.144Z,2.20
2023-04-25T09:27:19.754Z,2.00
2023-04-25T09:29:47.384Z,2.27
2023-04-25T09:32:22.531Z,1.90
2023-04-25T09:34:51.609Z,1.80
2023-04-25T09:37:20.417Z,1.60
2023-04-25T09:39:48.812Z,1.50
2023-04-25T09:42:17.329Z,1.40
2023-04-25T09:44:45.861Z,1.80
2023-04-25T09:47:14.163Z,1.77
2023-04-25T09:49:45.059Z,1.55
2023-04-25T09:52:19.428Z,1.80
2023-04-25T09:54:47.330Z,1.60
2023-04-25T09:57:25.285Z,1.38
2023-04-25T09:59:53.817Z,1.20
2023-04-25T10:02:26.253Z,1.20
2023-04-25T10:04:56.150Z,1.30
2023-04-25T10:07:29.585Z,0.87
2023-04-25T10:10:01.583Z,0.85
2023-04-25T10:12:28.486Z,0.93
2023-04-25T10:14:56.067Z,1.00
2023-04-25T10:17:23.208Z,1.00
2023-04-25T10:19:50.500Z,0.90
2023-04-25T10:22:38.383Z,0.70
2023-04-25T10:25:05.971Z,0.80
2023-04-25T10:27:32.951Z,0.70
2023-04-25T10:30:12.571Z,0.70
2023-04-25T10:32:39.744Z,0.50
2023-04-25T10:35:13.496Z,0.50
2023-04-25T10:37:58.408Z,0.60
2023-04-25T10:40:25.563Z,0.43
2023-04-25T10:42:56.232Z,1.10
2023-04-25T10:45:23.321Z,0.50
2023-04-25T10:47:51.470Z,0.80
2023-04-25T10:50:19.022Z,0.88
2023-04-25T10:52:47.831Z,0.68
2023-04-25T10:55:14.854Z,0.70
2023-04-25T10:57:43.256Z,0.63
2023-04-25T11:00:12.673Z,0.82
2023-04-25T11:03:00.683Z,1.10
2023-04-25T11:05:50.971Z,0.85
2023-04-25T11:08:41.117Z,0.75
2023-04-25T11:11:09.129Z,1.00
2023-04-25T11:13:35.895Z,0.80
2023-04-25T11:16:12.175Z,0.70
2023-04-25T11:18:42.803Z,0.80
2023-04-25T11:21:12.379Z,0.70
2023-04-25T11:23:39.144Z,1.07
2023-04-25T11:26:06.097Z,0.60
2023-04-25T11:28:33.016Z,1.13
2023-04-25T11:30:59.814Z,1.40
2023-04-25T11:33:28.175Z,1.40
2023-04-25T11:35:56.408Z,1.10
2023-04-25T11:38:28.716Z,1.10
2023-04-25T11:40:56.404Z,0.70
2023-04-25T11:43:23.645Z,0.95
2023-04-25T11:45:52.079Z,0.90
2023-04-25T11:48:26.053Z,0.87
2023-04-25T11:50:55.026Z,0.60
2023-04-25T11:53:22.038Z,0.65
2023-04-25T11:55:48.877Z,0.55
2023-04-25T11:58:15.667Z,0.70
2023-04-25T12:00:50.576Z,0.53
2023-04-25T12:03:21.369Z,0.80
2023-04-25T12:05:48.583Z,1.10
2023-04-25T12:08:17.221Z,0.90
2023-04-25T12:10:46.427Z,0.95
2023-04-25T12:13:24.734Z,0.90
2023-04-25T12:15:51.825Z,1.30
2023-04-25T12:18:24.364Z,1.27
2023-04-25T12:20:51.156Z,1.20
2023-04-25T12:23:17.942Z,1.30
2023-04-25T12:25:48.076Z,1.50
2023-04-25T12:28:20.704Z,2.03
2023-04-25T12:31:04.206Z,2.30
2023-04-25T12:33:33.570Z,1.58
2023-04-25T12:36:02.058Z,2.60
2023-04-25T12:38:31.440Z,1.80
2023-04-25T12:40:59.174Z,2.80
2023-04-25T12:43:25.973Z,2.88
2023-04-25T12:45:56.535Z,3.20
2023-04-25T12:48:23.875Z,3.70
2023-04-25T12:50:54.947Z,3.23
2023-04-25T12:53:23.981Z,3.20
2023-04-25T12:55:50.900Z,4.00
2023-04-25T12:58:19.039Z,3.60
2023-04-25T13:00:46.135Z,4.15
2023-04-25T13:03:14.133Z,3.87
2023-04-25T13:05:42.086Z,3.92
2023-04-25T13:08:09.138Z,3.92
2023-04-25T13:10:37.080Z,4.20
2023-04-25T13:13:03.992Z,4.32
2023-04-25T13:15:31.748Z,4.03
2023-04-25T13:17:58.525Z,3.92
2023-04-25T13:20:25.774Z,4.35
2023-04-25T13:22:52.662Z,5.03
2023-04-25T13:25:19.872Z,4.70
2023-04-25T13:27:47.449Z,4.50
2023-04-25T13:30:14.780Z,4.97
2023-04-25T13:32:42.147Z,5.18
2023-04-25T13:35:13.487Z,3.95
2023-04-25T13:37:40.862Z,4.78
2023-04-25T13:40:11.162Z,4.47
2023-04-25T13:42:39.180Z,4.82
2023-04-25T13:45:06.803Z,2.88
2023-04-25T13:47:33.760Z,3.92
2023-04-25T13:50:01.245Z,2.63
2023-04-25T13:52:28.397Z,3.60
2023-04-25T13:54:55.305Z,4.32
2023-04-25T13:57:22.035Z,3.88
2023-04-25T13:59:48.915Z,4.28
2023-04-25T14:02:16.715Z,4.88
2023-04-25T14:04:43.592Z,2.60
2023-04-25T14:07:11.949Z,4.40
2023-04-25T14:09:38.789Z,4.57
2023-04-25T14:12:07.650Z,4.38
2023-04-25T14:14:34.423Z,4.13
2023-04-25T14:17:01.439Z,4.00
2023-04-25T14:19:29.726Z,2.05
2023-04-25T14:21:57.090Z,3.70
2023-04-25T14:24:23.804Z,3.60
2023-04-25T14:26:50.823Z,2.83
2023-04-25T14:29:17.837Z,3.63
2023-04-25T14:31:46.113Z,3.05
2023-04-25T14:34:13.060Z,4.10
2023-04-25T14:36:39.831Z,4.25
2023-04-25T14:39:06.668Z,4.00
2023-04-25T14:41:33.435Z,3.60
2023-04-25T14:44:00.933Z,4.50
2023-04-25T14:46:27.948Z,4.13
2023-04-25T14:48:56.755Z,4.57
2023-04-25T14:51:23.893Z,4.40
2023-04-25T14:53:52.266Z,5.13
2023-04-25T14:56:19.811Z,4.35
2023-04-25T14:58:46.706Z,4.53
2023-04-25T15:01:14.067Z,3.70
2023-04-25T15:03:41.670Z,3.10
2023-04-25T15:06:08.588Z,2.70
2023-04-25T15:08:35.591Z,2.22
2023-04-25T15:11:03.378Z,2.20
2023-04-25T15:13:30.270Z,2.10
2023-04-25T15:15:56.968Z,1.67
2023-04-25T15:18:24.756Z,1.60
2023-04-25T15:20:52.611Z,1.50
2023-04-25T15:23:20.815Z,1.75
2023-04-25T15:25:48.282Z,1.35
2023-04-25T15:28:16.855Z,1.38
2023-04-25T15:30:44.488Z,1.50
2023-04-25T15:33:11.354Z,1.30
2023-04-25T15:35:38.363Z,1.38
2023-04-25T15:38:05.538Z,1.30
2023-04-25T15:40:32.287Z,1.33
2023-04-25T15:42:59.742Z,1.40
2023-04-25T15:45:26.798Z,1.58
2023-04-25T15:47:55.237Z,1.50
2023-04-25T15:50:22.489Z,1.65
2023-04-25T15:52:50.521Z,2.20
2023-04-25T15:55:21.123Z,1.90
2023-04-25T15:57:49.765Z,1.33
2023-04-25T16:00:21.202Z,2.00
2023-04-25T16:02:48.684Z,2.00
2023-04-25T16:05:16.534Z,2.00
2023-04-25T16:07:44.814Z,1.90
2023-04-25T16:10:12.557Z,1.85
2023-04-25T16:12:40.775Z,1.70
2023-04-25T16:15:08.085Z,1.85
2023-04-25T16:17:35.239Z,2.00
2023-04-25T16:20:05.417Z,1.30
2023-04-25T16:22:32.367Z,1.90
2023-04-25T16:24:59.121Z,2.20
2023-04-25T16:27:25.901Z,1.85
2023-04-25T16:29:52.663Z,2.10
2023-04-25T16:32:19.649Z,1.80
2023-04-25T16:34:46.468Z,1.70
2023-04-25T16:37:13.180Z,1.88
2023-04-25T16:39:39.981Z,2.40
2023-04-25T16:42:06.912Z,2.83
2023-04-25T16:44:33.596Z,2.10
2023-04-25T16:47:00.448Z,2.00
2023-04-25T16:49:28.557Z,2.17
2023-04-25T16:51:55.676Z,2.30
2023-04-25T16:54:22.441Z,2.38
2023-04-25T16:56:49.130Z,2.27
2023-04-25T16:59:15.863Z,2.45
2023-04-25T17:01:42.576Z,1.92
2023-04-25T17:04:09.542Z,2.05
2023-04-25T17:06:36.439Z,2.00
2023-04-25T17:09:03.207Z,2.20
2023-04-25T17:11:30.376Z,1.83
2023-04-25T17:13:57.178Z,1.98
2023-04-25T17:16:24.138Z,1.80
2023-04-25T17:18:51.666Z,1.92
2023-04-25T17:21:19.012Z,1.77
2023-04-25T17:23:45.938Z,1.40
2023-04-25T17:26:13.191Z,1.70
2023-04-25T17:28:41.941Z,1.75
2023-04-25T17:31:09.810Z,1.48
2023-04-25T17:33:36.733Z,1.50
2023-04-25T17:36:04.174Z,1.30
2023-04-25T17:38:31.623Z,1.58
2023-04-25T17:40:58.876Z,1.40
2023-04-25T17:43:27.568Z,1.60
2023-04-25T17:45:54.659Z,1.80
2023-04-25T17:48:24.945Z,1.50
2023-04-25T17:50:51.723Z,1.75
2023-04-25T17:53:18.561Z,2.05
2023-04-25T17:55:45.372Z,1.63
2023-04-25T17:58:12.232Z,1.60
2023-04-25T18:00:39.141Z,1.77
2023-04-25T18:03:06.878Z,1.90
2023-04-25T18:05:33.634Z,1.65
2023-04-25T18:08:00.750Z,1.92
2023-04-25T18:10:27.790Z,1.57
2023-04-25T18:12:54.576Z,1.88
2023-04-25T18:15:22.166Z,2.28
2023-04-25T18:17:49.193Z,1.63
2023-04-25T18:20:17.192Z,2.13
2023-04-25T18:22:45.340Z,2.00
2023-04-25T18:25:13.389Z,2.00
2023-04-25T18:27:40.909Z,2.28
2023-04-25T18:30:09.491Z,2.53
2023-04-25T18:32:36.825Z,2.30
2023-04-25T18:35:04.593Z,2.47
2023-04-25T18:37:31.424Z,2.35
2023-04-25T18:39:58.633Z,2.40
2023-04-25T18:42:25.480Z,2.70
2023-04-25T18:44:52.480Z,2.00
2023-04-25T18:47:19.458Z,1.50
2023-04-25T18:49:47.727Z,1.92
2023-04-25T18:52:16.059Z,1.67
2023-04-25T18:54:42.944Z,2.10
2023-04-25T18:57:11.549Z,1.80
2023-04-25T18:59:38.223Z,1.70
2023-04-25T19:02:05.474Z,1.60
2023-04-25T19:04:32.726Z,1.88
2023-04-25T19:06:59.787Z,1.73
2023-04-25T19:09:26.720Z,1.48
2023-04-25T19:11:54.171Z,1.60
2023-04-25T19:14:20.974Z,1.90
2023-04-25T19:16:47.750Z,1.70
2023-04-25T19:19:14.598Z,1.70
2023-04-25T19:21:41.822Z,1.80
2023-04-25T19:24:08.862Z,1.87
2023-04-25T19:26:35.722Z,1.63
2023-04-25T19:29:07.262Z,1.80
2023-04-25T19:31:38.159Z,1.77
2023-04-25T19:34:06.338Z,1.73
2023-04-25T19:36:33.762Z,1.97
2023-04-25T19:39:04.605Z,1.55
2023-04-25T19:41:33.337Z,2.25
2023-04-25T19:44:04.580Z,2.03
2023-04-25T19:46:34.468Z,1.85
2023-04-25T19:49:01.613Z,1.80
2023-04-25T19:51:28.999Z,1.70
2023-04-25T19:53:56.003Z,1.90
2023-04-25T19:56:24.353Z,2.00
2023-04-25T19:58:51.476Z,1.83
2023-04-25T20:01:22.068Z,1.83
2023-04-25T20:03:51.788Z,1.52
2023-04-25T20:06:18.931Z,1.60
2023-04-25T20:08:47.076Z,1.52
2023-04-25T20:11:14.901Z,1.80
2023-04-25T20:13:41.942Z,2.53
2023-04-25T20:16:08.850Z,2.58
2023-04-25T20:18:35.647Z,2.00
2023-04-25T20:21:03.185Z,2.05
2023-04-25T20:23:30.070Z,2.03
2023-04-25T20:25:56.919Z,2.50
2023-04-25T20:28:23.757Z,2.28
2023-04-25T20:30:50.841Z,2.10
2023-04-25T20:33:17.603Z,2.20
2023-04-25T20:35:44.361Z,1.88
2023-04-25T20:38:12.057Z,2.07
2023-04-25T20:40:38.842Z,2.33
2023-04-25T20:43:05.767Z,1.90
2023-04-25T20:45:34.446Z,2.33
2023-04-25T20:48:02.710Z,2.08
2023-04-25T20:50:29.567Z,2.40
2023-04-25T20:52:56.300Z,2.50
2023-04-25T20:55:23.004Z,2.55
2023-04-25T20:57:50.099Z,2.40
2023-04-25T21:00:18.739Z,1.90
2023-04-25T21:02:46.650Z,2.03
2023-04-25T21:05:13.741Z,1.95
2023-04-25T21:07:40.539Z,2.45
2023-04-25T21:10:07.584Z,2.30
2023-04-25T21:12:35.573Z,2.10
2023-04-25T21:15:02.510Z,2.13
2023-04-25T21:17:29.343Z,2.10
2023-04-25T21:19:56.659Z,2.20
2023-04-25T21:22:23.491Z,1.73
2023-04-25T21:24:50.778Z,2.45
2023-04-25T21:27:17.714Z,2.17
2023-04-25T21:29:45.004Z,1.90
2023-04-25T21:32:11.794Z,1.92
2023-04-25T21:34:38.534Z,2.17
2023-04-25T21:37:05.844Z,2.38
2023-04-25T21:39:32.848Z,2.63
2023-04-25T21:42:01.349Z,2.42
2023-04-25T21:44:30.229Z,1.80
2023-04-25T21:46:57.120Z,2.10
2023-04-25T21:49:29.199Z,2.05
2023-04-25T21:51:56.964Z,2.50
2023-04-25T21:54:23.721Z,1.70
2023-04-25T21:56:51.744Z,2.25
2023-04-25T21:59:18.436Z,2.10
2023-04-25T22:01:45.475Z,2.30
2023-04-25T22:04:12.496Z,2.37
2023-04-25T22:06:39.362Z,2.10
2023-04-25T22:09:06.102Z,2.47
2023-04-25T22:11:32.857Z,2.33
2023-04-25T22:13:59.723Z,2.17
2023-04-25T22:16:26.441Z,2.43
2023-04-25T22:18:53.709Z,2.63
2023-04-25T22:21:20.668Z,2.58
2023-04-25T22:23:47.357Z,2.60
2023-04-25T22:26:14.416Z,2.38
2023-04-25T22:28:41.372Z,2.53
2023-04-25T22:31:08.573Z,2.33
2023-04-25T22:33:35.868Z,2.83
2023-04-25T22:36:03.199Z,2.70
2023-04-25T22:38:30.501Z,2.65
2023-04-25T22:40:57.258Z,3.20
2023-04-25T22:43:24.070Z,2.90
2023-04-25T22:45:52.236Z,2.80
2023-04-25T22:48:19.634Z,2.67
2023-04-25T22:50:46.568Z,2.60
2023-04-25T22:53:13.330Z,2.70
2023-04-25T22:55:40.074Z,3.03
2023-04-25T22:58:10.098Z,3.03
2023-04-25T23:00:37.701Z,3.10
2023-04-25T23:03:04.966Z,2.63
2023-04-25T23:05:32.972Z,2.87
2023-04-25T23:07:59.866Z,3.40
2023-04-25T23:10:28.182Z,3.08
2023-04-25T23:12:57.960Z,3.17
2023-04-25T23:15:30.974Z,3.10
2023-04-25T23:17:58.577Z,3.50
2023-04-25T23:20:25.465Z,3.45
2023-04-25T23:22:52.652Z,3.00
2023-04-25T23:25:19.399Z,3.40
2023-04-25T23:27:46.238Z,2.95
2023-04-25T23:30:13.783Z,2.97
2023-04-25T23:32:40.651Z,3.40
2023-04-25T23:35:08.174Z,3.00
2023-04-25T23:37:37.167Z,3.40
2023-04-25T23:40:10.578Z,3.42
2023-04-25T23:42:38.069Z,3.70
2023-04-25T23:45:06.740Z,3.55
2023-04-25T23:47:34.086Z,3.25
2023-04-25T23:50:01.628Z,3.20
2023-04-25T23:52:28.563Z,3.35
2023-04-25T23:54:56.253Z,3.60
2023-04-25T23:57:22.973Z,3.17
2023-04-25T23:59:49.791Z,3.75
